createdAt,value
2022-09-15T00:01:20.010Z,7.30
2022-09-15T00:03:48.788Z,7.00
2022-09-15T00:06:17.364Z,7.30
2022-09-15T00:08:45.073Z,7.20
2022-09-15T00:11:19.760Z,7.10
2022-09-15T00:13:47.524Z,7.60
2022-09-15T00:16:16.856Z,7.00
2022-09-15T00:18:45.397Z,7.00
2022-09-15T00:21:19.588Z,6.70
2022-09-15T00:23:48.414Z,6.60
2022-09-15T00:26:22.487Z,7.50
2022-09-15T00:28:51.363Z,7.50
2022-09-15T00:31:21.882Z,7.20
2022-09-15T00:33:52.417Z,7.10
2022-09-15T00:36:21.924Z,7.20
2022-09-15T00:38:50.339Z,7.10
2022-09-15T00:41:20.843Z,7.00
2022-09-15T00:44:04.595Z,7.30
2022-09-15T00:46:41.375Z,7.40
2022-09-15T00:49:23.761Z,7.40
2022-09-15T00:52:00.764Z,7.00
2022-09-15T00:54:37.762Z,6.70
2022-09-15T00:57:16.143Z,7.30
2022-09-15T00:59:44.515Z,7.30
2022-09-15T01:02:19.879Z,7.30
2022-09-15T01:07:21.631Z,7.50
2022-09-15T01:09:57.271Z,7.50
2022-09-15T01:12:26.116Z,8.30
2022-09-15T01:14:55.159Z,8.30
2022-09-15T01:17:44.427Z,8.50
2022-09-15T01:20:33.894Z,8.80
2022-09-15T01:23:31.163Z,9.00
2022-09-15T01:26:07.619Z,8.10
2022-09-15T01:28:50.324Z,8.30
2022-09-15T01:31:29.600Z,8.50
2022-09-15T01:34:09.491Z,9.50
2022-09-15T01:36:41.250Z,9.40
2022-09-15T01:39:37.595Z,10.20
2022-09-15T01:42:09.773Z,10.00
2022-09-15T01:44:52.415Z,10.00
2022-09-15T01:47:21.684Z,11.70
2022-09-15T01:50:01.349Z,11.30
2022-09-15T01:52:30.743Z,11.30
2022-09-15T01:55:02.407Z,10.80
2022-09-15T01:57:30.107Z,10.00
2022-09-15T01:59:57.900Z,10.50
2022-09-15T02:02:42.656Z,12.40
2022-09-15T02:05:26.215Z,11.50
2022-09-15T02:08:06.260Z,10.80
2022-09-15T02:11:12.947Z,11.70
2022-09-15T02:16:50.179Z,10.50
2022-09-15T02:19:32.944Z,11.80
2022-09-15T02:22:10.744Z,12.50
2022-09-15T02:24:44.208Z,13.60
2022-09-15T02:27:17.935Z,13.40
2022-09-15T02:29:48.743Z,13.80
2022-09-15T02:32:19.428Z,14.50
2022-09-15T02:34:51.772Z,14.80
2022-09-15T02:37:21.592Z,14.90
2022-09-15T02:39:55.048Z,14.10
2022-09-15T02:42:28.092Z,15.00
2022-09-15T02:44:56.477Z,13.40
2022-09-15T02:47:24.513Z,13.50
2022-09-15T02:49:52.179Z,13.50
2022-09-15T02:52:20.244Z,15.60
2022-09-15T02:54:48.250Z,15.80
2022-09-15T02:57:16.589Z,17.30
2022-09-15T03:00:02.908Z,16.40
2022-09-15T03:02:31.277Z,16.60
2022-09-15T03:04:59.133Z,16.60
2022-09-15T03:07:28.567Z,16.80
2022-09-15T03:09:56.412Z,15.80
2022-09-15T03:12:25.093Z,15.50
2022-09-15T03:14:52.722Z,15.90
2022-09-15T03:17:20.424Z,16.90
2022-09-15T03:19:48.092Z,17.50
2022-09-15T03:22:15.857Z,18.70
2022-09-15T03:24:43.925Z,17.60
2022-09-15T03:27:11.581Z,18.20
2022-09-15T03:29:39.428Z,17.90
2022-09-15T03:32:07.059Z,19.00
2022-09-15T03:34:34.721Z,17.30
2022-09-15T03:37:02.509Z,19.20
2022-09-15T03:39:30.508Z,17.10
2022-09-15T03:41:58.257Z,17.80
2022-09-15T03:44:26.105Z,18.40
2022-09-15T03:46:53.805Z,17.50
2022-09-15T03:49:21.588Z,17.90
2022-09-15T03:51:49.396Z,18.10
2022-09-15T03:54:17.933Z,16.80
2022-09-15T03:56:49.112Z,16.70
2022-09-15T03:59:19.032Z,17.60
2022-09-15T04:01:48.234Z,16.40
2022-09-15T04:04:16.920Z,17.70
2022-09-15T04:06:45.089Z,16.80
2022-09-15T04:09:12.874Z,16.40
2022-09-15T04:11:41.043Z,16.80
2022-09-15T04:14:08.694Z,18.20
2022-09-15T04:16:36.556Z,17.80
2022-09-15T04:19:05.045Z,16.60
2022-09-15T04:21:32.793Z,16.60
2022-09-15T04:24:00.555Z,15.80
2022-09-15T04:26:34.457Z,15.50
2022-09-15T04:29:04.848Z,14.80
2022-09-15T04:31:34.240Z,16.00
2022-09-15T04:34:02.570Z,16.10
2022-09-15T04:36:31.460Z,15.60
2022-09-15T04:38:59.424Z,16.20
2022-09-15T04:41:27.902Z,15.40
2022-09-15T04:43:55.706Z,16.30
2022-09-15T04:46:23.567Z,15.70
2022-09-15T04:48:52.226Z,16.90
2022-09-15T04:51:22.240Z,15.80
2022-09-15T04:53:50.471Z,17.20
2022-09-15T04:56:21.654Z,16.60
2022-09-15T04:59:03.808Z,14.80
2022-09-15T05:01:35.614Z,16.90
2022-09-15T05:04:04.614Z,16.00
2022-09-15T05:06:34.938Z,15.60
2022-09-15T05:09:09.820Z,15.20
2022-09-15T05:11:38.741Z,14.20
2022-09-15T05:14:06.795Z,14.80
2022-09-15T05:16:34.549Z,15.00
2022-09-15T05:19:05.618Z,15.00
2022-09-15T05:21:33.998Z,13.70
2022-09-15T05:24:02.374Z,13.70
2022-09-15T05:26:30.279Z,13.40
2022-09-15T05:28:58.306Z,14.00
2022-09-15T05:31:29.208Z,13.20
2022-09-15T05:33:57.577Z,13.80
2022-09-15T05:36:25.717Z,14.80
2022-09-15T05:38:56.610Z,12.20
2022-09-15T05:41:26.955Z,13.80
2022-09-15T05:43:59.863Z,13.10
2022-09-15T05:46:29.385Z,13.20
2022-09-15T05:48:58.540Z,12.50
2022-09-15T05:51:26.486Z,13.00
2022-09-15T05:53:54.181Z,13.20
2022-09-15T05:56:22.452Z,13.60
2022-09-15T05:58:50.187Z,13.30
2022-09-15T06:01:21.184Z,12.70
2022-09-15T06:03:49.799Z,11.90
2022-09-15T06:06:17.829Z,11.40
2022-09-15T06:08:52.777Z,11.50
2022-09-15T06:11:26.231Z,11.40
2022-09-15T06:13:54.599Z,11.50
2022-09-15T06:16:24.581Z,11.90
2022-09-15T06:18:53.588Z,11.40
2022-09-15T06:21:27.534Z,11.80
2022-09-15T06:23:57.177Z,11.00
2022-09-15T06:26:26.302Z,10.70
2022-09-15T06:28:56.619Z,11.20
2022-09-15T06:31:26.421Z,10.00
2022-09-15T06:33:56.129Z,10.20
2022-09-15T06:36:27.463Z,11.10
2022-09-15T06:38:55.742Z,9.60
2022-09-15T06:41:23.603Z,10.40
2022-09-15T06:43:52.208Z,9.20
2022-09-15T06:46:23.940Z,9.80
2022-09-15T06:48:53.516Z,9.20
2022-09-15T06:51:24.635Z,9.60
2022-09-15T06:53:53.595Z,9.40
2022-09-15T06:56:23.351Z,9.10
2022-09-15T06:58:51.739Z,8.60
2022-09-15T07:01:29.948Z,9.80
2022-09-15T07:03:59.369Z,9.40
2022-09-15T07:06:31.973Z,9.20
2022-09-15T07:09:00.633Z,8.60
2022-09-15T07:11:30.740Z,8.60
2022-09-15T07:13:59.282Z,9.20
2022-09-15T07:16:27.309Z,9.20
2022-09-15T07:18:57.186Z,8.70
2022-09-15T07:21:24.900Z,8.80
2022-09-15T07:23:52.831Z,7.90
2022-09-15T07:26:24.029Z,7.70
2022-09-15T07:28:55.670Z,6.90
2022-09-15T07:31:25.792Z,6.60
2022-09-15T07:33:53.945Z,6.70
2022-09-15T07:36:22.744Z,6.50
2022-09-15T07:38:52.311Z,6.90
2022-09-15T07:41:25.748Z,7.20
2022-09-15T07:43:56.676Z,6.60
2022-09-15T07:46:27.024Z,6.70
2022-09-15T07:48:58.773Z,6.40
2022-09-15T07:51:27.308Z,5.80
2022-09-15T07:53:55.939Z,6.50
2022-09-15T07:56:24.889Z,5.70
2022-09-15T07:58:54.196Z,4.80
2022-09-15T08:01:23.272Z,5.10
2022-09-15T08:03:53.992Z,4.50
2022-09-15T08:06:24.919Z,4.20
2022-09-15T08:08:59.260Z,5.10
2022-09-15T08:11:28.990Z,4.60
2022-09-15T08:13:57.589Z,3.90
2022-09-15T08:16:27.207Z,4.00
2022-09-15T08:18:56.337Z,3.90
2022-09-15T08:21:24.843Z,3.90
2022-09-15T08:23:58.423Z,3.40
2022-09-15T08:26:29.097Z,3.70
2022-09-15T08:28:58.190Z,3.10
2022-09-15T08:31:26.412Z,2.90
2022-09-15T08:33:56.341Z,3.00
2022-09-15T08:36:28.179Z,3.30
2022-09-15T08:38:57.497Z,3.20
2022-09-15T08:41:49.488Z,2.20
2022-09-15T08:44:41.396Z,2.90
2022-09-15T08:47:19.517Z,2.60
2022-09-15T08:50:02.507Z,2.30
2022-09-15T08:52:48.467Z,2.50
2022-09-15T08:55:57.068Z,2.70
2022-09-15T08:58:34.760Z,2.50
2022-09-15T09:01:12.199Z,2.60
2022-09-15T09:03:49.435Z,2.40
2022-09-15T09:06:45.792Z,2.70
2022-09-15T09:09:38.236Z,4.20
2022-09-15T09:12:41.218Z,2.70
2022-09-15T09:15:27.968Z,2.00
2022-09-15T09:17:58.354Z,2.30
2022-09-15T09:20:52.696Z,2.20
2022-09-15T09:23:27.869Z,2.10
2022-09-15T09:28:53.109Z,2.60
2022-09-15T09:31:23.383Z,2.20
2022-09-15T09:33:53.566Z,2.40
2022-09-15T09:36:22.005Z,2.10
2022-09-15T09:38:50.915Z,2.20
2022-09-15T09:41:26.144Z,2.30
2022-09-15T09:43:56.553Z,2.20
2022-09-15T09:46:24.384Z,2.20
2022-09-15T09:49:02.984Z,2.50
2022-09-15T09:51:55.683Z,2.00
2022-09-15T09:54:27.355Z,2.10
2022-09-15T09:56:57.564Z,2.00
2022-09-15T09:59:41.820Z,2.00
2022-09-15T10:02:12.355Z,1.80
2022-09-15T10:04:42.505Z,2.30
2022-09-15T10:07:13.089Z,2.10
2022-09-15T10:09:49.982Z,1.90
2022-09-15T10:12:40.085Z,2.00
2022-09-15T10:15:27.264Z,2.10
2022-09-15T10:17:56.590Z,1.80
2022-09-15T10:20:46.805Z,2.20
2022-09-15T10:23:18.015Z,1.70
2022-09-15T10:26:01.620Z,2.00
2022-09-15T10:28:29.497Z,1.90
2022-09-15T10:31:13.688Z,2.20
2022-09-15T10:33:46.194Z,2.10
2022-09-15T10:36:17.905Z,1.80
2022-09-15T10:38:54.698Z,1.80
2022-09-15T10:41:29.183Z,1.90
2022-09-15T10:44:25.095Z,2.10
2022-09-15T10:47:14.881Z,2.10
2022-09-15T10:50:10.397Z,1.70
2022-09-15T10:53:00.985Z,2.20
2022-09-15T10:55:52.654Z,1.90
2022-09-15T10:58:38.961Z,2.10
2022-09-15T11:01:30.223Z,2.10
2022-09-15T11:04:11.164Z,2.20
2022-09-15T11:06:59.353Z,1.60
2022-09-15T11:09:51.329Z,1.90
2022-09-15T11:12:55.533Z,2.00
2022-09-15T11:15:41.321Z,1.70
2022-09-15T11:18:36.801Z,2.10
2022-09-15T11:21:14.074Z,2.00
2022-09-15T11:24:06.283Z,2.00
2022-09-15T11:26:41.314Z,1.80
2022-09-15T11:31:48.024Z,1.90
2022-09-15T11:34:26.559Z,1.90
2022-09-15T11:37:03.997Z,2.00
2022-09-15T11:40:22.575Z,2.10
2022-09-15T11:42:57.839Z,1.90
2022-09-15T11:48:28.991Z,2.20
2022-09-15T11:51:01.829Z,2.20
2022-09-15T11:53:50.690Z,2.00
2022-09-15T11:56:41.062Z,2.30
2022-09-15T11:59:37.149Z,2.20
2022-09-15T12:02:22.769Z,2.20
2022-09-15T12:05:15.015Z,2.20
2022-09-15T12:08:04.881Z,1.80
2022-09-15T12:10:43.548Z,2.90
2022-09-15T12:13:16.914Z,2.10
2022-09-15T12:15:46.758Z,1.70
2022-09-15T12:18:49.539Z,1.80
2022-09-15T12:21:45.509Z,1.70
2022-09-15T12:24:13.653Z,2.00
2022-09-15T12:26:43.698Z,2.10
2022-09-15T12:29:42.426Z,2.20
2022-09-15T12:32:16.986Z,2.10
2022-09-15T12:35:03.951Z,2.10
2022-09-15T12:37:38.078Z,4.20
2022-09-15T12:40:08.196Z,39.80
2022-09-15T12:42:37.210Z,4.00
2022-09-15T12:45:19.974Z,2.10
2022-09-15T12:48:01.025Z,2.10
2022-09-15T12:50:35.635Z,2.20
2022-09-15T12:53:21.523Z,2.20
2022-09-15T12:56:02.749Z,2.20
2022-09-15T12:58:38.687Z,1.90
2022-09-15T13:01:19.015Z,1.90
2022-09-15T13:03:49.029Z,1.70
2022-09-15T13:06:17.303Z,1.80
2022-09-15T13:08:46.814Z,2.10
2022-09-15T13:11:37.455Z,2.30
2022-09-15T13:14:08.224Z,2.30
2022-09-15T13:16:43.890Z,2.40
2022-09-15T13:19:28.083Z,2.00
2022-09-15T13:21:58.979Z,2.20
2022-09-15T13:24:49.878Z,2.40
2022-09-15T13:27:25.630Z,2.10
2022-09-15T13:30:03.107Z,2.20
2022-09-15T13:32:48.704Z,2.10
2022-09-15T13:38:33.846Z,1.90
2022-09-15T13:41:07.703Z,1.70
2022-09-15T13:43:47.646Z,2.00
2022-09-15T13:46:18.565Z,2.30
2022-09-15T13:48:55.957Z,1.90
2022-09-15T13:51:26.847Z,2.10
2022-09-15T13:54:03.683Z,1.90
2022-09-15T13:56:53.390Z,1.60
2022-09-15T13:59:27.354Z,1.70
2022-09-15T14:01:57.021Z,1.90
2022-09-15T14:04:29.137Z,2.10
2022-09-15T14:07:01.077Z,2.00
2022-09-15T14:09:43.156Z,1.90
2022-09-15T14:12:13.527Z,2.60
2022-09-15T14:14:46.162Z,1.90
2022-09-15T14:17:24.323Z,2.10
2022-09-15T14:19:54.844Z,2.00
2022-09-15T14:22:29.061Z,2.20
2022-09-15T14:24:58.169Z,2.10
2022-09-15T14:27:29.077Z,2.00
2022-09-15T14:29:58.401Z,2.20
2022-09-15T14:32:28.247Z,2.20
2022-09-15T14:35:04.098Z,2.00
2022-09-15T14:37:32.631Z,2.10
2022-09-15T14:40:03.359Z,2.30
2022-09-15T14:42:36.191Z,1.90
2022-09-15T14:48:00.228Z,2.10
2022-09-15T14:50:32.986Z,2.20
2022-09-15T14:53:10.329Z,2.10
2022-09-15T14:55:47.297Z,2.20
2022-09-15T14:58:30.116Z,2.00
2022-09-15T15:01:10.246Z,2.10
2022-09-15T15:04:10.082Z,2.20
2022-09-15T15:06:44.490Z,2.10
2022-09-15T15:09:21.799Z,2.40
2022-09-15T15:11:58.809Z,2.00
2022-09-15T15:14:26.753Z,2.40
2022-09-15T15:17:34.070Z,2.60
2022-09-15T15:20:10.603Z,2.20
2022-09-15T15:22:40.023Z,2.20
2022-09-15T15:25:30.089Z,2.10
2022-09-15T15:27:59.881Z,2.20
2022-09-15T15:30:30.998Z,2.10
2022-09-15T15:33:27.526Z,2.50
2022-09-15T15:36:09.871Z,2.30
2022-09-15T15:38:51.988Z,2.40
2022-09-15T15:41:25.866Z,2.40
2022-09-15T15:44:17.595Z,2.50
2022-09-15T15:47:23.256Z,2.50
2022-09-15T15:50:12.383Z,2.60
2022-09-15T15:52:42.189Z,2.20
2022-09-15T15:55:14.201Z,2.50
2022-09-15T15:57:42.292Z,3.00
2022-09-15T16:00:31.747Z,2.40
2022-09-15T16:02:59.493Z,3.20
2022-09-15T16:05:29.609Z,2.60
2022-09-15T16:08:02.098Z,2.50
2022-09-15T16:10:37.248Z,2.30
2022-09-15T16:15:32.469Z,2.80
2022-09-15T16:18:00.926Z,2.50
2022-09-15T16:20:29.249Z,2.30
2022-09-15T16:22:57.424Z,2.70
2022-09-15T16:25:34.402Z,2.60
2022-09-15T16:28:02.914Z,2.70
2022-09-15T16:30:31.698Z,2.60
2022-09-15T16:33:00.133Z,2.80
2022-09-15T16:35:46.246Z,3.20
2022-09-15T16:38:13.926Z,2.80
2022-09-15T16:40:41.610Z,2.70
2022-09-15T16:43:13.926Z,2.90
2022-09-15T16:45:42.540Z,3.10
2022-09-15T16:48:11.641Z,3.20
2022-09-15T16:50:50.289Z,3.20
2022-09-15T16:53:30.967Z,3.20
2022-09-15T16:55:58.807Z,3.30
2022-09-15T16:58:26.674Z,3.50
2022-09-15T17:00:56.066Z,3.40
2022-09-15T17:03:26.016Z,3.30
2022-09-15T17:05:56.045Z,3.10
2022-09-15T17:08:27.380Z,3.50
2022-09-15T17:11:01.463Z,3.40
2022-09-15T17:13:31.387Z,4.00
2022-09-15T17:16:01.087Z,4.00
2022-09-15T17:18:29.506Z,3.90
2022-09-15T17:20:57.773Z,4.10
2022-09-15T17:23:34.697Z,4.00
2022-09-15T17:26:05.227Z,3.60
2022-09-15T17:28:36.698Z,3.50
2022-09-15T17:31:07.408Z,3.60
2022-09-15T17:33:35.174Z,3.50
2022-09-15T17:36:03.089Z,3.40
2022-09-15T17:38:32.151Z,3.60
2022-09-15T17:40:59.949Z,4.10
2022-09-15T17:43:30.049Z,4.00
2022-09-15T17:45:58.315Z,4.00
2022-09-15T17:48:26.204Z,4.30
2022-09-15T17:50:53.935Z,4.40
2022-09-15T17:53:26.707Z,4.60
2022-09-15T17:55:56.140Z,4.60
2022-09-15T17:58:29.971Z,5.50
2022-09-15T18:00:58.439Z,4.40
2022-09-15T18:03:30.859Z,5.10
2022-09-15T18:06:00.479Z,4.40
2022-09-15T18:08:28.959Z,5.00
2022-09-15T18:10:56.699Z,5.10
2022-09-15T18:13:29.818Z,4.90
2022-09-15T18:16:02.782Z,5.40
2022-09-15T18:18:30.667Z,5.30
2022-09-15T18:20:58.664Z,4.90
2022-09-15T18:23:29.429Z,5.40
2022-09-15T18:25:57.642Z,4.80
2022-09-15T18:28:25.473Z,5.20
2022-09-15T18:30:53.221Z,4.90
2022-09-15T18:33:23.533Z,5.20
2022-09-15T18:35:56.244Z,5.10
2022-09-15T18:38:24.340Z,5.10
2022-09-15T18:40:55.402Z,5.60
2022-09-15T18:43:26.746Z,5.90
2022-09-15T18:46:01.668Z,5.40
2022-09-15T18:48:31.377Z,5.20
2022-09-15T18:50:59.100Z,5.20
2022-09-15T18:53:27.409Z,5.20
2022-09-15T18:55:55.168Z,5.40
2022-09-15T18:58:22.891Z,5.40
2022-09-15T19:00:50.640Z,5.90
2022-09-15T19:03:18.471Z,5.80
2022-09-15T19:05:46.230Z,5.20
2022-09-15T19:08:13.983Z,5.50
2022-09-15T19:10:44.287Z,5.70
2022-09-15T19:13:14.327Z,5.90
2022-09-15T19:15:44.028Z,5.20
2022-09-15T19:18:12.173Z,5.60
2022-09-15T19:20:40.603Z,5.50
2022-09-15T19:23:09.424Z,5.40
2022-09-15T19:25:37.186Z,5.30
2022-09-15T19:28:05.202Z,5.30
2022-09-15T19:30:33.126Z,4.90
2022-09-15T19:33:04.105Z,5.00
2022-09-15T19:35:31.870Z,5.10
2022-09-15T19:37:59.590Z,5.10
2022-09-15T19:40:27.420Z,5.00
2022-09-15T19:42:55.153Z,5.30
2022-09-15T19:45:23.033Z,4.90
2022-09-15T19:47:50.746Z,4.50
2022-09-15T19:50:18.553Z,4.30
2022-09-15T19:52:46.621Z,4.60
2022-09-15T19:55:14.415Z,4.40
2022-09-15T19:57:42.876Z,4.60
2022-09-15T20:00:14.401Z,4.60
2022-09-15T20:02:42.248Z,4.50
2022-09-15T20:07:55.006Z,4.30
2022-09-15T20:10:22.674Z,3.80
2022-09-15T20:12:50.364Z,4.00
2022-09-15T20:15:18.196Z,4.00
2022-09-15T20:17:45.961Z,4.00
2022-09-15T20:20:13.931Z,4.00
2022-09-15T20:22:41.608Z,4.10
2022-09-15T20:25:09.280Z,4.40
2022-09-15T20:27:37.132Z,4.00
2022-09-15T20:30:22.218Z,3.70
2022-09-15T20:32:50.049Z,4.10
2022-09-15T20:35:17.833Z,3.90
2022-09-15T20:37:45.580Z,3.60
2022-09-15T20:40:13.498Z,4.30
2022-09-15T20:42:41.626Z,4.40
2022-09-15T20:45:10.391Z,4.20
2022-09-15T20:47:38.632Z,3.90
2022-09-15T20:50:06.898Z,3.80
2022-09-15T20:52:38.278Z,4.00
2022-09-15T20:55:07.137Z,4.60
2022-09-15T20:57:34.882Z,4.00
2022-09-15T21:00:05.098Z,4.50
2022-09-15T21:02:33.094Z,4.40
2022-09-15T21:05:00.827Z,4.50
2022-09-15T21:07:28.569Z,4.60
2022-09-15T21:09:56.228Z,4.70
2022-09-15T21:12:23.897Z,3.80
2022-09-15T21:14:51.855Z,4.40
2022-09-15T21:17:20.056Z,4.40
2022-09-15T21:19:47.674Z,4.60
2022-09-15T21:22:15.309Z,4.80
2022-09-15T21:24:43.014Z,4.70
2022-09-15T21:27:30.129Z,4.90
2022-09-15T21:29:59.003Z,5.70
2022-09-15T21:32:26.791Z,4.70
2022-09-15T21:34:56.079Z,4.50
2022-09-15T21:37:27.224Z,4.60
2022-09-15T21:39:55.041Z,5.00
2022-09-15T21:42:22.968Z,4.80
2022-09-15T21:44:51.350Z,5.20
2022-09-15T21:47:21.877Z,4.80
2022-09-15T21:49:51.811Z,4.50
2022-09-15T21:52:19.474Z,5.10
2022-09-15T21:54:47.222Z,4.50
2022-09-15T21:57:15.494Z,4.50
2022-09-15T21:59:43.153Z,4.80
2022-09-15T22:02:11.715Z,4.90
2022-09-15T22:04:39.787Z,5.00
2022-09-15T22:07:07.858Z,4.50
2022-09-15T22:09:35.823Z,4.50
2022-09-15T22:12:03.586Z,4.60
2022-09-15T22:14:31.323Z,4.80
2022-09-15T22:16:59.112Z,4.30
2022-09-15T22:19:26.834Z,5.00
2022-09-15T22:21:54.477Z,4.60
2022-09-15T22:24:22.211Z,4.30
2022-09-15T22:26:50.190Z,4.60
2022-09-15T22:29:17.932Z,4.50
2022-09-15T22:31:45.745Z,4.30
2022-09-15T22:34:13.563Z,4.70
2022-09-15T22:36:41.315Z,4.10
2022-09-15T22:39:11.574Z,4.70
2022-09-15T22:41:39.979Z,4.10
2022-09-15T22:44:17.831Z,4.40
2022-09-15T22:46:46.135Z,4.60
2022-09-15T22:49:14.316Z,4.60
2022-09-15T22:51:42.174Z,4.30
2022-09-15T22:54:09.938Z,4.20
2022-09-15T22:56:37.765Z,4.30
2022-09-15T22:59:05.954Z,4.40
2022-09-15T23:01:33.809Z,4.10
2022-09-15T23:04:02.531Z,5.00
2022-09-15T23:06:34.635Z,4.30
2022-09-15T23:09:06.348Z,4.90
2022-09-15T23:11:35.283Z,4.60
2022-09-15T23:14:03.613Z,4.30
2022-09-15T23:16:31.655Z,3.90
2022-09-15T23:19:00.926Z,4.30
2022-09-15T23:21:28.818Z,4.70
2022-09-15T23:23:57.218Z,4.90
2022-09-15T23:26:26.135Z,5.10
2022-09-15T23:28:54.327Z,5.10
2022-09-15T23:31:22.274Z,4.50
2022-09-15T23:33:49.983Z,5.30
2022-09-15T23:36:21.331Z,5.10
2022-09-15T23:38:50.068Z,4.90
2022-09-15T23:41:18.678Z,5.40
2022-09-15T23:43:47.406Z,5.60
2022-09-15T23:46:17.553Z,5.50
2022-09-15T23:48:45.345Z,6.00
2022-09-15T23:51:13.255Z,5.70
2022-09-15T23:53:40.976Z,5.20
2022-09-15T23:56:08.638Z,5.10
2022-09-15T23:58:36.534Z,5.10
